sensor_id;sensor_type;location;lat;lon;timestamp;temperature;humidity
52731;DHT22;38624;53.242;6.974;2023-06-14T00:02:14;16.20;82.30
52731;DHT22;38624;53.242;6.974;2023-06-14T00:04:40;16.40;82.10
52731;DHT22;38624;53.242;6.974;2023-06-14T00:07:07;16.20;82.50
52731;DHT22;38624;53.242;6.974;2023-06-14T00:09:35;16.10;83.90
52731;DHT22;38624;53.242;6.974;2023-06-14T00:12:01;16.20;83.60
52731;DHT22;38624;53.242;6.974;2023-06-14T00:14:26;16.10;84.60
52731;DHT22;38624;53.242;6.974;2023-06-14T00:16:52;16.00;85.60
52731;DHT22;38624;53.242;6.974;2023-06-14T00:19:18;15.90;86.40
52731;DHT22;38624;53.242;6.974;2023-06-14T00:21:45;15.90;87.80
52731;DHT22;38624;53.242;6.974;2023-06-14T00:24:11;15.80;87.70
52731;DHT22;38624;53.242;6.974;2023-06-14T00:26:36;15.80;88.00
52731;DHT22;38624;53.242;6.974;2023-06-14T00:29:02;15.90;88.60
52731;DHT22;38624;53.242;6.974;2023-06-14T00:31:27;15.80;89.80
52731;DHT22;38624;53.242;6.974;2023-06-14T00:33:53;15.80;90.00
52731;DHT22;38624;53.242;6.974;2023-06-14T00:36:19;15.80;90.30
52731;DHT22;38624;53.242;6.974;2023-06-14T00:38:44;15.70;91.10
52731;DHT22;38624;53.242;6.974;2023-06-14T00:41:10;15.60;91.50
52731;DHT22;38624;53.242;6.974;2023-06-14T00:43:35;15.70;91.70
52731;DHT22;38624;53.242;6.974;2023-06-14T00:46:01;15.60;92.10
52731;DHT22;38624;53.242;6.974;2023-06-14T00:48:27;15.50;92.50
52731;DHT22;38624;53.242;6.974;2023-06-14T00:50:53;15.50;93.20
52731;DHT22;38624;53.242;6.974;2023-06-14T00:53:19;15.40;93.50
52731;DHT22;38624;53.242;6.974;2023-06-14T00:55:48;15.40;93.50
52731;DHT22;38624;53.242;6.974;2023-06-14T00:58:13;15.50;93.70
52731;DHT22;38624;53.242;6.974;2023-06-14T01:00:40;15.40;94.00
52731;DHT22;38624;53.242;6.974;2023-06-14T01:03:05;15.40;94.20
52731;DHT22;38624;53.242;6.974;2023-06-14T01:05:31;15.40;94.30
52731;DHT22;38624;53.242;6.974;2023-06-14T01:10:29;15.30;95.10
52731;DHT22;38624;53.242;6.974;2023-06-14T01:12:58;15.30;95.30
52731;DHT22;38624;53.242;6.974;2023-06-14T01:15:26;15.30;95.60
52731;DHT22;38624;53.242;6.974;2023-06-14T01:17:53;15.30;95.50
52731;DHT22;38624;53.242;6.974;2023-06-14T01:20:19;15.20;96.10
52731;DHT22;38624;53.242;6.974;2023-06-14T01:22:50;15.30;96.30
52731;DHT22;38624;53.242;6.974;2023-06-14T01:25:15;15.20;96.40
52731;DHT22;38624;53.242;6.974;2023-06-14T01:27:42;15.30;96.80
52731;DHT22;38624;53.242;6.974;2023-06-14T01:30:07;15.20;97.10
52731;DHT22;38624;53.242;6.974;2023-06-14T01:32:35;15.10;97.50
52731;DHT22;38624;53.242;6.974;2023-06-14T01:35:01;15.10;97.90
52731;DHT22;38624;53.242;6.974;2023-06-14T01:37:26;15.10;98.10
52731;DHT22;38624;53.242;6.974;2023-06-14T01:39:52;15.00;98.70
52731;DHT22;38624;53.242;6.974;2023-06-14T01:42:18;15.00;99.20
52731;DHT22;38624;53.242;6.974;2023-06-14T01:44:44;15.00;99.20
52731;DHT22;38624;53.242;6.974;2023-06-14T01:47:10;14.90;99.50
52731;DHT22;38624;53.242;6.974;2023-06-14T01:49:38;14.90;99.30
52731;DHT22;38624;53.242;6.974;2023-06-14T01:52:03;14.90;99.50
52731;DHT22;38624;53.242;6.974;2023-06-14T01:54:29;14.90;99.90
52731;DHT22;38624;53.242;6.974;2023-06-14T01:56:56;14.90;99.90
52731;DHT22;38624;53.242;6.974;2023-06-14T01:59:22;14.80;99.90
52731;DHT22;38624;53.242;6.974;2023-06-14T02:01:47;14.80;99.90
52731;DHT22;38624;53.242;6.974;2023-06-14T02:04:13;14.80;99.90
52731;DHT22;38624;53.242;6.974;2023-06-14T02:06:38;14.80;99.90
52731;DHT22;38624;53.242;6.974;2023-06-14T02:09:04;14.80;99.90
52731;DHT22;38624;53.242;6.974;2023-06-14T02:11:29;14.70;99.90
52731;DHT22;38624;53.242;6.974;2023-06-14T02:13:56;14.80;99.90
52731;DHT22;38624;53.242;6.974;2023-06-14T02:16:22;14.60;99.90
52731;DHT22;38624;53.242;6.974;2023-06-14T02:18:47;14.60;99.90
52731;DHT22;38624;53.242;6.974;2023-06-14T02:21:13;14.50;99.90
52731;DHT22;38624;53.242;6.974;2023-06-14T02:23:39;14.50;99.90
52731;DHT22;38624;53.242;6.974;2023-06-14T02:26:05;14.50;99.90
52731;DHT22;38624;53.242;6.974;2023-06-14T02:28:30;14.60;99.90
52731;DHT22;38624;53.242;6.974;2023-06-14T02:30:56;14.40;99.90
52731;DHT22;38624;53.242;6.974;2023-06-14T02:33:22;14.40;99.90
52731;DHT22;38624;53.242;6.974;2023-06-14T02:35:47;14.40;99.90
52731;DHT22;38624;53.242;6.974;2023-06-14T02:38:13;14.30;99.90
52731;DHT22;38624;53.242;6.974;2023-06-14T02:40:39;14.30;99.90
52731;DHT22;38624;53.242;6.974;2023-06-14T02:43:07;14.30;99.90
52731;DHT22;38624;53.242;6.974;2023-06-14T02:45:33;14.30;99.90
52731;DHT22;38624;53.242;6.974;2023-06-14T02:47:58;14.20;99.90
52731;DHT22;38624;53.242;6.974;2023-06-14T02:50:24;14.10;99.90
52731;DHT22;38624;53.242;6.974;2023-06-14T02:52:50;14.10;99.90
52731;DHT22;38624;53.242;6.974;2023-06-14T02:55:15;14.20;99.90
52731;DHT22;38624;53.242;6.974;2023-06-14T02:57:41;14.20;99.90
52731;DHT22;38624;53.242;6.974;2023-06-14T03:00:07;14.20;99.90
52731;DHT22;38624;53.242;6.974;2023-06-14T03:02:35;14.20;99.90
52731;DHT22;38624;53.242;6.974;2023-06-14T03:05:01;14.10;99.90
52731;DHT22;38624;53.242;6.974;2023-06-14T03:07:28;14.10;99.90
52731;DHT22;38624;53.242;6.974;2023-06-14T03:09:55;14.00;99.90
52731;DHT22;38624;53.242;6.974;2023-06-14T03:12:20;13.90;99.90
52731;DHT22;38624;53.242;6.974;2023-06-14T03:14:46;14.30;99.90
52731;DHT22;38624;53.242;6.974;2023-06-14T03:17:12;13.90;99.90
52731;DHT22;38624;53.242;6.974;2023-06-14T03:19:37;13.80;99.90
52731;DHT22;38624;53.242;6.974;2023-06-14T03:22:03;13.80;99.90
52731;DHT22;38624;53.242;6.974;2023-06-14T03:24:29;13.70;99.90
52731;DHT22;38624;53.242;6.974;2023-06-14T03:26:54;13.60;99.90
52731;DHT22;38624;53.242;6.974;2023-06-14T03:29:20;13.60;99.90
52731;DHT22;38624;53.242;6.974;2023-06-14T03:31:59;13.50;99.90
52731;DHT22;38624;53.242;6.974;2023-06-14T03:34:25;13.50;99.90
52731;DHT22;38624;53.242;6.974;2023-06-14T03:36:51;13.50;99.90
52731;DHT22;38624;53.242;6.974;2023-06-14T03:39:17;13.40;99.90
52731;DHT22;38624;53.242;6.974;2023-06-14T03:41:42;13.40;99.90
52731;DHT22;38624;53.242;6.974;2023-06-14T03:44:08;13.40;99.90
52731;DHT22;38624;53.242;6.974;2023-06-14T03:46:33;13.40;99.90
52731;DHT22;38624;53.242;6.974;2023-06-14T03:48:59;13.40;99.90
52731;DHT22;38624;53.242;6.974;2023-06-14T03:51:25;13.50;99.90
52731;DHT22;38624;53.242;6.974;2023-06-14T03:53:51;13.40;99.90
52731;DHT22;38624;53.242;6.974;2023-06-14T03:56:17;13.50;99.90
52731;DHT22;38624;53.242;6.974;2023-06-14T03:58:42;13.40;99.90
52731;DHT22;38624;53.242;6.974;2023-06-14T04:01:08;13.40;99.90
52731;DHT22;38624;53.242;6.974;2023-06-14T04:03:33;13.50;99.90
52731;DHT22;38624;53.242;6.974;2023-06-14T04:05:59;13.40;99.90
52731;DHT22;38624;53.242;6.974;2023-06-14T04:08:25;13.50;99.90
52731;DHT22;38624;53.242;6.974;2023-06-14T04:10:50;13.50;99.90
52731;DHT22;38624;53.242;6.974;2023-06-14T04:13:16;13.50;99.90
52731;DHT22;38624;53.242;6.974;2023-06-14T04:15:42;13.80;99.90
52731;DHT22;38624;53.242;6.974;2023-06-14T04:18:09;14.20;99.90
52731;DHT22;38624;53.242;6.974;2023-06-14T04:20:34;14.30;99.90
52731;DHT22;38624;53.242;6.974;2023-06-14T04:23:16;14.30;99.90
52731;DHT22;38624;53.242;6.974;2023-06-14T04:25:43;14.10;99.90
52731;DHT22;38624;53.242;6.974;2023-06-14T04:28:11;14.10;99.90
52731;DHT22;38624;53.242;6.974;2023-06-14T04:30:37;14.00;99.90
52731;DHT22;38624;53.242;6.974;2023-06-14T04:33:06;14.10;99.90
52731;DHT22;38624;53.242;6.974;2023-06-14T04:35:31;14.00;99.90
52731;DHT22;38624;53.242;6.974;2023-06-14T04:38:01;14.00;99.90
52731;DHT22;38624;53.242;6.974;2023-06-14T04:40:29;14.00;99.90
52731;DHT22;38624;53.242;6.974;2023-06-14T04:42:55;14.10;99.90
52731;DHT22;38624;53.242;6.974;2023-06-14T04:45:21;13.90;99.90
52731;DHT22;38624;53.242;6.974;2023-06-14T04:47:47;14.00;99.90
52731;DHT22;38624;53.242;6.974;2023-06-14T04:50:12;14.00;99.90
52731;DHT22;38624;53.242;6.974;2023-06-14T04:52:38;14.00;99.90
52731;DHT22;38624;53.242;6.974;2023-06-14T04:55:04;14.00;99.90
52731;DHT22;38624;53.242;6.974;2023-06-14T04:57:30;14.00;99.90
52731;DHT22;38624;53.242;6.974;2023-06-14T04:59:56;14.00;99.90
52731;DHT22;38624;53.242;6.974;2023-06-14T05:02:23;14.10;99.90
52731;DHT22;38624;53.242;6.974;2023-06-14T05:04:49;14.20;99.90
52731;DHT22;38624;53.242;6.974;2023-06-14T05:07:15;14.20;99.90
52731;DHT22;38624;53.242;6.974;2023-06-14T05:09:40;14.30;99.90
52731;DHT22;38624;53.242;6.974;2023-06-14T05:12:06;14.40;99.90
52731;DHT22;38624;53.242;6.974;2023-06-14T05:14:35;14.40;99.90
52731;DHT22;38624;53.242;6.974;2023-06-14T05:17:01;14.50;99.90
52731;DHT22;38624;53.242;6.974;2023-06-14T05:19:27;14.50;99.90
52731;DHT22;38624;53.242;6.974;2023-06-14T05:21:53;14.50;99.90
52731;DHT22;38624;53.242;6.974;2023-06-14T05:24:19;14.60;99.90
52731;DHT22;38624;53.242;6.974;2023-06-14T05:26:45;14.70;99.90
52731;DHT22;38624;53.242;6.974;2023-06-14T05:29:11;14.80;99.90
52731;DHT22;38624;53.242;6.974;2023-06-14T05:31:36;14.80;99.90
52731;DHT22;38624;53.242;6.974;2023-06-14T05:34:02;14.90;99.90
52731;DHT22;38624;53.242;6.974;2023-06-14T05:36:27;15.10;99.90
52731;DHT22;38624;53.242;6.974;2023-06-14T05:38:53;15.10;99.90
52731;DHT22;38624;53.242;6.974;2023-06-14T05:41:26;15.20;99.90
52731;DHT22;38624;53.242;6.974;2023-06-14T05:43:52;15.30;99.90
52731;DHT22;38624;53.242;6.974;2023-06-14T05:46:17;15.40;99.90
52731;DHT22;38624;53.242;6.974;2023-06-14T05:48:54;14.70;99.90
52731;DHT22;38624;53.242;6.974;2023-06-14T05:51:20;15.60;99.90
52731;DHT22;38624;53.242;6.974;2023-06-14T05:53:46;15.80;99.90
52731;DHT22;38624;53.242;6.974;2023-06-14T05:56:12;15.60;99.90
52731;DHT22;38624;53.242;6.974;2023-06-14T05:58:38;16.10;99.90
52731;DHT22;38624;53.242;6.974;2023-06-14T06:01:04;16.30;99.90
52731;DHT22;38624;53.242;6.974;2023-06-14T06:03:29;16.40;99.90
52731;DHT22;38624;53.242;6.974;2023-06-14T06:05:55;16.40;99.90
52731;DHT22;38624;53.242;6.974;2023-06-14T06:08:21;16.60;99.90
52731;DHT22;38624;53.242;6.974;2023-06-14T06:10:46;16.70;99.90
52731;DHT22;38624;53.242;6.974;2023-06-14T06:13:12;16.90;99.90
52731;DHT22;38624;53.242;6.974;2023-06-14T06:15:37;17.00;99.90
52731;DHT22;38624;53.242;6.974;2023-06-14T06:18:03;17.00;99.90
52731;DHT22;38624;53.242;6.974;2023-06-14T06:20:29;17.20;99.90
52731;DHT22;38624;53.242;6.974;2023-06-14T06:22:57;17.30;99.90
52731;DHT22;38624;53.242;6.974;2023-06-14T06:25:23;17.40;99.90
52731;DHT22;38624;53.242;6.974;2023-06-14T06:27:54;17.50;99.90
52731;DHT22;38624;53.242;6.974;2023-06-14T06:30:21;17.60;99.90
52731;DHT22;38624;53.242;6.974;2023-06-14T06:32:47;17.60;99.90
52731;DHT22;38624;53.242;6.974;2023-06-14T06:35:12;17.60;99.90
52731;DHT22;38624;53.242;6.974;2023-06-14T06:37:38;17.70;99.90
52731;DHT22;38624;53.242;6.974;2023-06-14T06:40:04;17.80;99.90
52731;DHT22;38624;53.242;6.974;2023-06-14T06:42:31;18.00;99.90
52731;DHT22;38624;53.242;6.974;2023-06-14T06:44:57;18.10;99.90
52731;DHT22;38624;53.242;6.974;2023-06-14T06:47:22;18.10;99.90
52731;DHT22;38624;53.242;6.974;2023-06-14T06:49:48;18.10;99.90
52731;DHT22;38624;53.242;6.974;2023-06-14T06:52:13;18.20;99.90
52731;DHT22;38624;53.242;6.974;2023-06-14T06:54:39;18.30;99.90
52731;DHT22;38624;53.242;6.974;2023-06-14T06:57:05;18.40;99.90
52731;DHT22;38624;53.242;6.974;2023-06-14T06:59:31;18.60;99.90
52731;DHT22;38624;53.242;6.974;2023-06-14T07:01:57;18.50;99.90
52731;DHT22;38624;53.242;6.974;2023-06-14T07:04:22;18.60;99.90
52731;DHT22;38624;53.242;6.974;2023-06-14T07:06:48;18.80;99.90
52731;DHT22;38624;53.242;6.974;2023-06-14T07:09:14;18.80;99.90
52731;DHT22;38624;53.242;6.974;2023-06-14T07:11:42;19.00;99.90
52731;DHT22;38624;53.242;6.974;2023-06-14T07:14:07;19.00;99.90
52731;DHT22;38624;53.242;6.974;2023-06-14T07:16:33;19.10;99.90
52731;DHT22;38624;53.242;6.974;2023-06-14T07:18:59;19.20;99.90
52731;DHT22;38624;53.242;6.974;2023-06-14T07:21:26;19.30;99.90
52731;DHT22;38624;53.242;6.974;2023-06-14T07:23:52;19.50;99.90
52731;DHT22;38624;53.242;6.974;2023-06-14T07:26:18;19.60;99.90
52731;DHT22;38624;53.242;6.974;2023-06-14T07:28:43;19.60;99.90
52731;DHT22;38624;53.242;6.974;2023-06-14T07:31:12;19.80;99.90
52731;DHT22;38624;53.242;6.974;2023-06-14T07:33:38;19.90;99.90
52731;DHT22;38624;53.242;6.974;2023-06-14T07:36:03;20.00;99.90
52731;DHT22;38624;53.242;6.974;2023-06-14T07:38:29;20.00;99.90
52731;DHT22;38624;53.242;6.974;2023-06-14T07:40:55;20.10;99.90
52731;DHT22;38624;53.242;6.974;2023-06-14T07:43:20;20.20;99.90
52731;DHT22;38624;53.242;6.974;2023-06-14T07:45:46;20.30;99.90
52731;DHT22;38624;53.242;6.974;2023-06-14T07:48:11;20.40;99.90
52731;DHT22;38624;53.242;6.974;2023-06-14T07:50:37;20.60;99.90
52731;DHT22;38624;53.242;6.974;2023-06-14T07:53:02;20.60;99.40
52731;DHT22;38624;53.242;6.974;2023-06-14T07:55:28;20.70;99.70
52731;DHT22;38624;53.242;6.974;2023-06-14T07:57:54;20.70;99.50
52731;DHT22;38624;53.242;6.974;2023-06-14T08:00:19;20.80;98.00
52731;DHT22;38624;53.242;6.974;2023-06-14T08:02:46;20.80;98.50
52731;DHT22;38624;53.242;6.974;2023-06-14T08:05:11;20.80;98.60
52731;DHT22;38624;53.242;6.974;2023-06-14T08:07:37;20.90;98.30
52731;DHT22;38624;53.242;6.974;2023-06-14T08:10:06;20.80;98.10
52731;DHT22;38624;53.242;6.974;2023-06-14T08:12:32;21.00;98.70
52731;DHT22;38624;53.242;6.974;2023-06-14T08:14:58;20.90;96.70
52731;DHT22;38624;53.242;6.974;2023-06-14T08:17:23;21.10;96.40
52731;DHT22;38624;53.242;6.974;2023-06-14T08:19:49;21.10;96.30
52731;DHT22;38624;53.242;6.974;2023-06-14T08:22:15;21.10;96.20
52731;DHT22;38624;53.242;6.974;2023-06-14T08:24:42;21.20;95.40
52731;DHT22;38624;53.242;6.974;2023-06-14T08:27:07;21.20;96.40
52731;DHT22;38624;53.242;6.974;2023-06-14T08:29:34;21.30;95.90
52731;DHT22;38624;53.242;6.974;2023-06-14T08:31:59;21.40;94.60
52731;DHT22;38624;53.242;6.974;2023-06-14T08:34:25;21.30;95.20
52731;DHT22;38624;53.242;6.974;2023-06-14T08:39:06;21.10;93.60
52731;DHT22;38624;53.242;6.974;2023-06-14T08:41:34;21.30;94.40
52731;DHT22;38624;53.242;6.974;2023-06-14T08:44:01;21.40;93.70
52731;DHT22;38624;53.242;6.974;2023-06-14T08:46:26;21.40;94.10
52731;DHT22;38624;53.242;6.974;2023-06-14T08:48:55;21.50;93.10
52731;DHT22;38624;53.242;6.974;2023-06-14T08:51:22;21.50;92.60
52731;DHT22;38624;53.242;6.974;2023-06-14T08:53:55;21.50;93.10
52731;DHT22;38624;53.242;6.974;2023-06-14T08:56:28;21.60;93.00
52731;DHT22;38624;53.242;6.974;2023-06-14T08:58:54;21.60;91.90
52731;DHT22;38624;53.242;6.974;2023-06-14T09:01:22;21.70;92.40
52731;DHT22;38624;53.242;6.974;2023-06-14T09:03:49;21.70;92.40
52731;DHT22;38624;53.242;6.974;2023-06-14T09:06:16;21.70;91.70
52731;DHT22;38624;53.242;6.974;2023-06-14T09:08:45;21.80;91.70
52731;DHT22;38624;53.242;6.974;2023-06-14T09:11:12;21.80;91.90
52731;DHT22;38624;53.242;6.974;2023-06-14T09:13:39;21.80;91.80
52731;DHT22;38624;53.242;6.974;2023-06-14T09:16:05;21.90;91.20
52731;DHT22;38624;53.242;6.974;2023-06-14T09:18:38;21.90;90.70
52731;DHT22;38624;53.242;6.974;2023-06-14T09:21:07;21.90;91.00
52731;DHT22;38624;53.242;6.974;2023-06-14T09:23:37;22.00;90.60
52731;DHT22;38624;53.242;6.974;2023-06-14T09:26:21;22.00;91.40
52731;DHT22;38624;53.242;6.974;2023-06-14T09:28:50;22.10;90.70
52731;DHT22;38624;53.242;6.974;2023-06-14T09:31:20;22.50;90.80
52731;DHT22;38624;53.242;6.974;2023-06-14T09:33:47;22.20;90.80
52731;DHT22;38624;53.242;6.974;2023-06-14T09:36:25;22.30;90.50
52731;DHT22;38624;53.242;6.974;2023-06-14T09:38:55;22.30;89.30
52731;DHT22;38624;53.242;6.974;2023-06-14T09:41:42;22.40;90.20
52731;DHT22;38624;53.242;6.974;2023-06-14T09:44:09;22.50;90.70
52731;DHT22;38624;53.242;6.974;2023-06-14T09:46:36;22.60;90.70
52731;DHT22;38624;53.242;6.974;2023-06-14T09:49:03;22.60;87.70
52731;DHT22;38624;53.242;6.974;2023-06-14T09:51:30;22.60;88.60
52731;DHT22;38624;53.242;6.974;2023-06-14T09:54:00;22.70;88.30
52731;DHT22;38624;53.242;6.974;2023-06-14T09:56:28;22.70;87.50
52731;DHT22;38624;53.242;6.974;2023-06-14T09:58:58;22.70;86.90
52731;DHT22;38624;53.242;6.974;2023-06-14T10:01:25;22.70;87.50
52731;DHT22;38624;53.242;6.974;2023-06-14T10:04:03;22.80;89.00
52731;DHT22;38624;53.242;6.974;2023-06-14T10:06:30;22.80;89.70
52731;DHT22;38624;53.242;6.974;2023-06-14T10:09:00;22.90;87.90
52731;DHT22;38624;53.242;6.974;2023-06-14T10:11:28;22.90;87.30
52731;DHT22;38624;53.242;6.974;2023-06-14T10:13:58;22.90;85.90
52731;DHT22;38624;53.242;6.974;2023-06-14T10:16:52;23.00;86.00
52731;DHT22;38624;53.242;6.974;2023-06-14T10:19:33;23.10;86.70
52731;DHT22;38624;53.242;6.974;2023-06-14T10:22:19;23.10;84.70
52731;DHT22;38624;53.242;6.974;2023-06-14T10:24:48;23.10;83.80
52731;DHT22;38624;53.242;6.974;2023-06-14T10:27:16;23.10;85.10
52731;DHT22;38624;53.242;6.974;2023-06-14T10:32:18;23.10;85.50
52731;DHT22;38624;53.242;6.974;2023-06-14T10:34:55;23.20;82.90
52731;DHT22;38624;53.242;6.974;2023-06-14T10:37:21;23.20;83.90
52731;DHT22;38624;53.242;6.974;2023-06-14T10:39:47;23.20;84.70
52731;DHT22;38624;53.242;6.974;2023-06-14T10:42:14;23.40;85.70
52731;DHT22;38624;53.242;6.974;2023-06-14T10:44:41;23.30;84.20
52731;DHT22;38624;53.242;6.974;2023-06-14T10:47:20;23.40;83.70
52731;DHT22;38624;53.242;6.974;2023-06-14T10:49:50;23.50;82.60
52731;DHT22;38624;53.242;6.974;2023-06-14T10:52:20;23.50;82.50
52731;DHT22;38624;53.242;6.974;2023-06-14T10:55:06;23.60;84.20
52731;DHT22;38624;53.242;6.974;2023-06-14T10:57:42;23.70;82.00
52731;DHT22;38624;53.242;6.974;2023-06-14T11:00:09;23.80;77.80
52731;DHT22;38624;53.242;6.974;2023-06-14T11:05:52;23.90;77.80
52731;DHT22;38624;53.242;6.974;2023-06-14T11:11:08;23.90;78.20
52731;DHT22;38624;53.242;6.974;2023-06-14T11:13:37;23.90;80.60
52731;DHT22;38624;53.242;6.974;2023-06-14T11:16:13;23.90;77.90
52731;DHT22;38624;53.242;6.974;2023-06-14T11:18:39;24.00;78.40
52731;DHT22;38624;53.242;6.974;2023-06-14T11:21:05;24.10;78.90
52731;DHT22;38624;53.242;6.974;2023-06-14T11:23:31;24.10;79.60
52731;DHT22;38624;53.242;6.974;2023-06-14T11:25:56;24.30;80.00
52731;DHT22;38624;53.242;6.974;2023-06-14T11:28:22;24.30;79.20
52731;DHT22;38624;53.242;6.974;2023-06-14T11:30:49;24.40;80.10
52731;DHT22;38624;53.242;6.974;2023-06-14T11:33:24;24.60;79.50
52731;DHT22;38624;53.242;6.974;2023-06-14T11:35:51;24.70;78.80
52731;DHT22;38624;53.242;6.974;2023-06-14T11:38:17;24.90;79.70
52731;DHT22;38624;53.242;6.974;2023-06-14T11:40:43;24.90;79.10
52731;DHT22;38624;53.242;6.974;2023-06-14T11:43:09;24.80;76.40
52731;DHT22;38624;53.242;6.974;2023-06-14T11:45:35;24.80;77.50
52731;DHT22;38624;53.242;6.974;2023-06-14T11:48:01;24.90;77.70
52731;DHT22;38624;53.242;6.974;2023-06-14T11:50:27;25.30;74.90
52731;DHT22;38624;53.242;6.974;2023-06-14T11:52:53;25.10;76.20
52731;DHT22;38624;53.242;6.974;2023-06-14T11:55:20;25.10;77.40
52731;DHT22;38624;53.242;6.974;2023-06-14T11:57:46;24.90;75.90
52731;DHT22;38624;53.242;6.974;2023-06-14T12:00:13;24.90;75.20
52731;DHT22;38624;53.242;6.974;2023-06-14T12:02:41;24.80;74.20
52731;DHT22;38624;53.242;6.974;2023-06-14T12:05:07;24.90;77.00
52731;DHT22;38624;53.242;6.974;2023-06-14T12:07:36;24.90;76.30
52731;DHT22;38624;53.242;6.974;2023-06-14T12:12:35;25.40;76.70
52731;DHT22;38624;53.242;6.974;2023-06-14T12:15:03;25.50;75.40
52731;DHT22;38624;53.242;6.974;2023-06-14T12:17:35;25.80;75.40
52731;DHT22;38624;53.242;6.974;2023-06-14T12:20:12;25.70;74.80
52731;DHT22;38624;53.242;6.974;2023-06-14T12:28:03;25.40;72.90
52731;DHT22;38624;53.242;6.974;2023-06-14T12:30:29;25.50;74.80
52731;DHT22;38624;53.242;6.974;2023-06-14T12:32:55;25.10;74.00
52731;DHT22;38624;53.242;6.974;2023-06-14T12:35:20;25.30;75.00
52731;DHT22;38624;53.242;6.974;2023-06-14T12:37:47;25.40;75.60
52731;DHT22;38624;53.242;6.974;2023-06-14T12:40:13;25.60;75.80
52731;DHT22;38624;53.242;6.974;2023-06-14T12:42:40;25.70;75.90
52731;DHT22;38624;53.242;6.974;2023-06-14T12:45:05;25.60;73.80
52731;DHT22;38624;53.242;6.974;2023-06-14T12:47:31;25.70;74.70
52731;DHT22;38624;53.242;6.974;2023-06-14T12:49:57;26.00;74.70
52731;DHT22;38624;53.242;6.974;2023-06-14T12:52:23;26.10;75.40
52731;DHT22;38624;53.242;6.974;2023-06-14T12:54:49;26.20;74.00
52731;DHT22;38624;53.242;6.974;2023-06-14T12:57:15;26.30;73.40
52731;DHT22;38624;53.242;6.974;2023-06-14T12:59:40;26.30;71.70
52731;DHT22;38624;53.242;6.974;2023-06-14T13:02:13;26.20;72.40
52731;DHT22;38624;53.242;6.974;2023-06-14T13:04:40;26.20;71.90
52731;DHT22;38624;53.242;6.974;2023-06-14T13:07:06;25.90;69.50
52731;DHT22;38624;53.242;6.974;2023-06-14T13:09:32;25.80;71.10
52731;DHT22;38624;53.242;6.974;2023-06-14T13:11:57;25.70;71.60
52731;DHT22;38624;53.242;6.974;2023-06-14T13:14:23;25.80;73.70
52731;DHT22;38624;53.242;6.974;2023-06-14T13:16:49;25.80;72.70
52731;DHT22;38624;53.242;6.974;2023-06-14T13:19:14;25.80;72.90
52731;DHT22;38624;53.242;6.974;2023-06-14T13:21:40;25.90;70.90
52731;DHT22;38624;53.242;6.974;2023-06-14T13:24:06;26.20;72.20
52731;DHT22;38624;53.242;6.974;2023-06-14T13:26:32;26.40;72.30
52731;DHT22;38624;53.242;6.974;2023-06-14T13:28:58;26.40;72.40
52731;DHT22;38624;53.242;6.974;2023-06-14T13:31:24;26.20;71.50
52731;DHT22;38624;53.242;6.974;2023-06-14T13:33:49;26.00;70.70
52731;DHT22;38624;53.242;6.974;2023-06-14T13:36:15;25.80;71.40
52731;DHT22;38624;53.242;6.974;2023-06-14T13:38:41;25.90;72.60
52731;DHT22;38624;53.242;6.974;2023-06-14T13:41:07;26.00;72.50
52731;DHT22;38624;53.242;6.974;2023-06-14T13:43:32;26.10;72.30
52731;DHT22;38624;53.242;6.974;2023-06-14T13:45:58;26.10;72.00
52731;DHT22;38624;53.242;6.974;2023-06-14T13:48:24;26.20;71.60
52731;DHT22;38624;53.242;6.974;2023-06-14T13:50:50;26.40;69.80
52731;DHT22;38624;53.242;6.974;2023-06-14T13:53:15;26.50;72.10
52731;DHT22;38624;53.242;6.974;2023-06-14T13:55:41;26.50;71.70
52731;DHT22;38624;53.242;6.974;2023-06-14T13:58:07;26.40;71.60
52731;DHT22;38624;53.242;6.974;2023-06-14T14:00:32;26.50;72.20
52731;DHT22;38624;53.242;6.974;2023-06-14T14:02:58;26.70;72.10
52731;DHT22;38624;53.242;6.974;2023-06-14T14:05:25;26.80;69.20
52731;DHT22;38624;53.242;6.974;2023-06-14T14:07:55;26.70;70.10
52731;DHT22;38624;53.242;6.974;2023-06-14T14:10:23;26.60;68.60
52731;DHT22;38624;53.242;6.974;2023-06-14T14:12:50;26.40;69.20
52731;DHT22;38624;53.242;6.974;2023-06-14T14:15:16;26.00;69.20
52731;DHT22;38624;53.242;6.974;2023-06-14T14:17:42;25.90;69.00
52731;DHT22;38624;53.242;6.974;2023-06-14T14:20:09;25.90;70.90
52731;DHT22;38624;53.242;6.974;2023-06-14T14:22:35;25.90;69.20
52731;DHT22;38624;53.242;6.974;2023-06-14T14:25:01;25.90;70.30
52731;DHT22;38624;53.242;6.974;2023-06-14T14:27:26;25.90;70.00
52731;DHT22;38624;53.242;6.974;2023-06-14T14:29:52;26.00;68.40
52731;DHT22;38624;53.242;6.974;2023-06-14T14:32:18;25.90;69.50
52731;DHT22;38624;53.242;6.974;2023-06-14T14:34:43;26.20;70.40
52731;DHT22;38624;53.242;6.974;2023-06-14T14:37:09;26.20;70.40
52731;DHT22;38624;53.242;6.974;2023-06-14T14:39:36;26.40;69.80
52731;DHT22;38624;53.242;6.974;2023-06-14T14:42:02;26.50;69.30
52731;DHT22;38624;53.242;6.974;2023-06-14T14:44:28;26.60;70.70
52731;DHT22;38624;53.242;6.974;2023-06-14T14:46:54;26.60;70.30
52731;DHT22;38624;53.242;6.974;2023-06-14T14:49:19;26.60;70.20
52731;DHT22;38624;53.242;6.974;2023-06-14T14:51:45;26.50;70.50
52731;DHT22;38624;53.242;6.974;2023-06-14T14:54:11;26.40;69.70
52731;DHT22;38624;53.242;6.974;2023-06-14T14:56:37;26.50;69.80
52731;DHT22;38624;53.242;6.974;2023-06-14T14:59:03;26.80;68.10
52731;DHT22;38624;53.242;6.974;2023-06-14T15:01:29;27.60;67.70
52731;DHT22;38624;53.242;6.974;2023-06-14T15:03:55;28.80;66.20
52731;DHT22;38624;53.242;6.974;2023-06-14T15:06:20;30.10;65.10
52731;DHT22;38624;53.242;6.974;2023-06-14T15:08:46;31.10;65.60
52731;DHT22;38624;53.242;6.974;2023-06-14T15:11:12;31.80;65.60
52731;DHT22;38624;53.242;6.974;2023-06-14T15:13:37;32.80;65.00
52731;DHT22;38624;53.242;6.974;2023-06-14T15:16:03;33.70;63.50
52731;DHT22;38624;53.242;6.974;2023-06-14T15:18:29;34.20;62.10
52731;DHT22;38624;53.242;6.974;2023-06-14T15:20:55;34.70;60.50
52731;DHT22;38624;53.242;6.974;2023-06-14T15:23:21;34.60;58.20
52731;DHT22;38624;53.242;6.974;2023-06-14T15:25:47;33.40;57.60
52731;DHT22;38624;53.242;6.974;2023-06-14T15:28:13;31.90;57.00
52731;DHT22;38624;53.242;6.974;2023-06-14T15:30:39;31.70;57.50
52731;DHT22;38624;53.242;6.974;2023-06-14T15:33:05;32.00;57.60
52731;DHT22;38624;53.242;6.974;2023-06-14T15:35:30;32.50;57.20
52731;DHT22;38624;53.242;6.974;2023-06-14T15:37:56;33.20;57.20
52731;DHT22;38624;53.242;6.974;2023-06-14T15:40:22;33.30;57.00
52731;DHT22;38624;53.242;6.974;2023-06-14T15:42:47;33.60;56.50
52731;DHT22;38624;53.242;6.974;2023-06-14T15:45:13;33.90;56.20
52731;DHT22;38624;53.242;6.974;2023-06-14T15:47:39;33.60;55.60
52731;DHT22;38624;53.242;6.974;2023-06-14T15:50:05;32.70;55.70